sensor_id;sensor_type;location;lat;lon;timestamp;P1;durP1;ratioP1;P2;durP2;ratioP2
51971;SDS011;37991;49.662;10.060;2022-08-30T00:00:51;3.63;;;2.30;;
51971;SDS011;37991;49.662;10.060;2022-08-30T00:03:40;2.67;;;1.80;;
51971;SDS011;37991;49.662;10.060;2022-08-30T00:06:10;3.95;;;2.00;;
51971;SDS011;37991;49.662;10.060;2022-08-30T00:08:36;3.53;;;1.75;;
51971;SDS011;37991;49.662;10.060;2022-08-30T00:11:03;2.78;;;1.80;;
51971;SDS011;37991;49.662;10.060;2022-08-30T00:13:31;3.35;;;1.83;;
51971;SDS011;37991;49.662;10.060;2022-08-30T00:15:56;5.55;;;1.83;;
51971;SDS011;37991;49.662;10.060;2022-08-30T00:18:22;3.60;;;2.10;;
51971;SDS011;37991;49.662;10.060;2022-08-30T00:20:48;4.30;;;2.05;;
51971;SDS011;37991;49.662;10.060;2022-08-30T00:23:15;3.03;;;1.92;;
51971;SDS011;37991;49.662;10.060;2022-08-30T00:25:42;7.10;;;2.25;;
51971;SDS011;37991;49.662;10.060;2022-08-30T00:28:08;4.63;;;1.90;;
51971;SDS011;37991;49.662;10.060;2022-08-30T00:30:34;3.78;;;2.45;;
51971;SDS011;37991;49.662;10.060;2022-08-30T00:33:00;5.13;;;2.33;;
51971;SDS011;37991;49.662;10.060;2022-08-30T00:35:26;5.95;;;2.13;;
51971;SDS011;37991;49.662;10.060;2022-08-30T00:37:51;5.15;;;2.40;;
51971;SDS011;37991;49.662;10.060;2022-08-30T00:40:18;5.78;;;2.17;;
51971;SDS011;37991;49.662;10.060;2022-08-30T00:42:46;5.65;;;2.17;;
51971;SDS011;37991;49.662;10.060;2022-08-30T00:45:16;3.97;;;2.20;;
51971;SDS011;37991;49.662;10.060;2022-08-30T00:47:44;5.45;;;1.98;;
51971;SDS011;37991;49.662;10.060;2022-08-30T00:50:10;5.75;;;2.10;;
51971;SDS011;37991;49.662;10.060;2022-08-30T00:52:38;6.35;;;2.25;;
51971;SDS011;37991;49.662;10.060;2022-08-30T00:55:07;4.10;;;2.08;;
51971;SDS011;37991;49.662;10.060;2022-08-30T00:57:33;2.78;;;1.83;;
51971;SDS011;37991;49.662;10.060;2022-08-30T01:00:00;3.13;;;1.90;;
51971;SDS011;37991;49.662;10.060;2022-08-30T01:02:27;3.35;;;2.20;;
51971;SDS011;37991;49.662;10.060;2022-08-30T01:04:54;5.03;;;2.22;;
51971;SDS011;37991;49.662;10.060;2022-08-30T01:07:21;5.18;;;2.25;;
51971;SDS011;37991;49.662;10.060;2022-08-30T01:09:46;3.90;;;1.98;;
51971;SDS011;37991;49.662;10.060;2022-08-30T01:12:12;3.45;;;2.20;;
51971;SDS011;37991;49.662;10.060;2022-08-30T01:14:37;5.40;;;2.42;;
51971;SDS011;37991;49.662;10.060;2022-08-30T01:17:03;2.97;;;1.58;;
51971;SDS011;37991;49.662;10.060;2022-08-30T01:19:35;3.83;;;1.95;;
51971;SDS011;37991;49.662;10.060;2022-08-30T01:25:11;3.10;;;2.20;;
51971;SDS011;37991;49.662;10.060;2022-08-30T01:27:37;2.90;;;2.00;;
51971;SDS011;37991;49.662;10.060;2022-08-30T01:30:07;4.32;;;2.13;;
51971;SDS011;37991;49.662;10.060;2022-08-30T01:32:37;3.97;;;2.38;;
51971;SDS011;37991;49.662;10.060;2022-08-30T01:35:05;4.20;;;2.05;;
51971;SDS011;37991;49.662;10.060;2022-08-30T01:37:31;5.95;;;2.00;;
51971;SDS011;37991;49.662;10.060;2022-08-30T01:39:57;5.65;;;2.13;;
51971;SDS011;37991;49.662;10.060;2022-08-30T01:42:24;4.05;;;2.20;;
51971;SDS011;37991;49.662;10.060;2022-08-30T01:44:49;3.40;;;1.95;;
51971;SDS011;37991;49.662;10.060;2022-08-30T01:47:15;4.43;;;2.13;;
51971;SDS011;37991;49.662;10.060;2022-08-30T01:49:42;7.03;;;2.95;;
51971;SDS011;37991;49.662;10.060;2022-08-30T01:52:09;4.60;;;2.10;;
51971;SDS011;37991;49.662;10.060;2022-08-30T01:54:37;4.47;;;2.13;;
51971;SDS011;37991;49.662;10.060;2022-08-30T01:57:05;4.53;;;2.33;;
51971;SDS011;37991;49.662;10.060;2022-08-30T01:59:31;3.92;;;2.30;;
51971;SDS011;37991;49.662;10.060;2022-08-30T02:01:57;4.90;;;2.28;;
51971;SDS011;37991;49.662;10.060;2022-08-30T02:04:22;3.03;;;2.03;;
51971;SDS011;37991;49.662;10.060;2022-08-30T02:06:47;8.32;;;2.92;;
51971;SDS011;37991;49.662;10.060;2022-08-30T02:09:13;4.72;;;2.58;;
51971;SDS011;37991;49.662;10.060;2022-08-30T02:11:38;4.90;;;2.30;;
51971;SDS011;37991;49.662;10.060;2022-08-30T02:14:04;5.50;;;2.40;;
51971;SDS011;37991;49.662;10.060;2022-08-30T02:16:30;4.40;;;2.10;;
51971;SDS011;37991;49.662;10.060;2022-08-30T02:18:56;3.45;;;2.13;;
51971;SDS011;37991;49.662;10.060;2022-08-30T02:21:21;6.78;;;2.70;;
51971;SDS011;37991;49.662;10.060;2022-08-30T02:23:48;4.60;;;2.25;;
51971;SDS011;37991;49.662;10.060;2022-08-30T02:26:14;2.83;;;1.88;;
51971;SDS011;37991;49.662;10.060;2022-08-30T02:28:39;9.32;;;2.67;;
51971;SDS011;37991;49.662;10.060;2022-08-30T02:31:05;4.45;;;2.33;;
51971;SDS011;37991;49.662;10.060;2022-08-30T02:33:30;3.63;;;2.30;;
51971;SDS011;37991;49.662;10.060;2022-08-30T02:35:56;3.47;;;2.30;;
51971;SDS011;37991;49.662;10.060;2022-08-30T02:38:22;3.65;;;2.45;;
51971;SDS011;37991;49.662;10.060;2022-08-30T02:40:48;4.53;;;2.60;;
51971;SDS011;37991;49.662;10.060;2022-08-30T02:43:13;5.55;;;2.25;;
51971;SDS011;37991;49.662;10.060;2022-08-30T02:45:39;4.88;;;2.20;;
51971;SDS011;37991;49.662;10.060;2022-08-30T02:48:04;4.38;;;2.45;;
51971;SDS011;37991;49.662;10.060;2022-08-30T02:50:30;3.50;;;2.00;;
51971;SDS011;37991;49.662;10.060;2022-08-30T02:52:55;4.72;;;2.50;;
51971;SDS011;37991;49.662;10.060;2022-08-30T02:55:20;3.95;;;2.08;;
51971;SDS011;37991;49.662;10.060;2022-08-30T02:57:46;6.07;;;2.45;;
51971;SDS011;37991;49.662;10.060;2022-08-30T03:00:13;4.40;;;2.55;;
51971;SDS011;37991;49.662;10.060;2022-08-30T03:02:40;5.28;;;2.50;;
51971;SDS011;37991;49.662;10.060;2022-08-30T03:05:09;3.92;;;2.38;;
51971;SDS011;37991;49.662;10.060;2022-08-30T03:07:37;4.93;;;2.10;;
51971;SDS011;37991;49.662;10.060;2022-08-30T03:10:03;4.80;;;2.40;;
51971;SDS011;37991;49.662;10.060;2022-08-30T03:12:29;5.13;;;2.63;;
51971;SDS011;37991;49.662;10.060;2022-08-30T03:14:56;6.35;;;2.65;;
51971;SDS011;37991;49.662;10.060;2022-08-30T03:17:22;4.43;;;2.60;;
51971;SDS011;37991;49.662;10.060;2022-08-30T03:19:47;4.13;;;2.28;;
51971;SDS011;37991;49.662;10.060;2022-08-30T03:22:13;9.20;;;2.83;;
51971;SDS011;37991;49.662;10.060;2022-08-30T03:24:39;6.03;;;2.50;;
51971;SDS011;37991;49.662;10.060;2022-08-30T03:27:04;6.30;;;2.83;;
51971;SDS011;37991;49.662;10.060;2022-08-30T03:29:29;3.95;;;2.53;;
51971;SDS011;37991;49.662;10.060;2022-08-30T03:31:55;6.60;;;2.67;;
51971;SDS011;37991;49.662;10.060;2022-08-30T03:34:22;5.88;;;2.35;;
51971;SDS011;37991;49.662;10.060;2022-08-30T03:36:49;3.90;;;2.30;;
51971;SDS011;37991;49.662;10.060;2022-08-30T03:39:16;4.70;;;2.35;;
51971;SDS011;37991;49.662;10.060;2022-08-30T03:41:42;6.45;;;2.80;;
51971;SDS011;37991;49.662;10.060;2022-08-30T03:44:07;4.90;;;2.50;;
51971;SDS011;37991;49.662;10.060;2022-08-30T03:46:33;3.33;;;2.50;;
51971;SDS011;37991;49.662;10.060;2022-08-30T03:48:58;7.70;;;2.63;;
51971;SDS011;37991;49.662;10.060;2022-08-30T03:51:24;6.50;;;2.45;;
51971;SDS011;37991;49.662;10.060;2022-08-30T03:53:50;7.22;;;2.50;;
51971;SDS011;37991;49.662;10.060;2022-08-30T03:56:15;4.85;;;2.53;;
51971;SDS011;37991;49.662;10.060;2022-08-30T03:58:42;4.97;;;2.42;;
51971;SDS011;37991;49.662;10.060;2022-08-30T04:01:07;5.43;;;2.63;;
51971;SDS011;37991;49.662;10.060;2022-08-30T04:03:33;6.95;;;2.47;;
51971;SDS011;37991;49.662;10.060;2022-08-30T04:05:59;5.25;;;2.22;;
51971;SDS011;37991;49.662;10.060;2022-08-30T04:08:25;5.03;;;2.47;;
51971;SDS011;37991;49.662;10.060;2022-08-30T04:10:51;8.35;;;2.97;;
51971;SDS011;37991;49.662;10.060;2022-08-30T04:13:18;5.18;;;2.50;;
51971;SDS011;37991;49.662;10.060;2022-08-30T04:15:44;4.38;;;2.55;;
51971;SDS011;37991;49.662;10.060;2022-08-30T04:18:09;4.13;;;2.53;;
51971;SDS011;37991;49.662;10.060;2022-08-30T04:20:35;3.95;;;2.58;;
51971;SDS011;37991;49.662;10.060;2022-08-30T04:23:01;4.65;;;2.47;;
51971;SDS011;37991;49.662;10.060;2022-08-30T04:25:27;3.90;;;2.40;;
51971;SDS011;37991;49.662;10.060;2022-08-30T04:27:53;4.28;;;2.78;;
51971;SDS011;37991;49.662;10.060;2022-08-30T04:30:18;5.60;;;2.45;;
51971;SDS011;37991;49.662;10.060;2022-08-30T04:32:44;5.68;;;2.55;;
51971;SDS011;37991;49.662;10.060;2022-08-30T04:35:10;4.75;;;2.90;;
51971;SDS011;37991;49.662;10.060;2022-08-30T04:37:36;4.00;;;2.58;;
51971;SDS011;37991;49.662;10.060;2022-08-30T04:40:03;4.90;;;2.60;;
51971;SDS011;37991;49.662;10.060;2022-08-30T04:42:30;3.25;;;2.60;;
51971;SDS011;37991;49.662;10.060;2022-08-30T04:44:57;4.90;;;2.25;;
51971;SDS011;37991;49.662;10.060;2022-08-30T04:47:24;5.72;;;2.63;;
51971;SDS011;37991;49.662;10.060;2022-08-30T04:49:50;7.85;;;2.90;;
51971;SDS011;37991;49.662;10.060;2022-08-30T04:52:16;4.50;;;2.45;;
51971;SDS011;37991;49.662;10.060;2022-08-30T04:54:41;4.88;;;2.63;;
51971;SDS011;37991;49.662;10.060;2022-08-30T04:57:07;4.38;;;2.70;;
51971;SDS011;37991;49.662;10.060;2022-08-30T04:59:32;7.70;;;2.35;;
51971;SDS011;37991;49.662;10.060;2022-08-30T05:01:58;5.80;;;2.60;;
51971;SDS011;37991;49.662;10.060;2022-08-30T05:04:24;5.57;;;2.55;;
51971;SDS011;37991;49.662;10.060;2022-08-30T05:06:49;4.47;;;2.72;;
51971;SDS011;37991;49.662;10.060;2022-08-30T05:09:15;9.27;;;2.80;;
51971;SDS011;37991;49.662;10.060;2022-08-30T05:11:41;3.35;;;2.15;;
51971;SDS011;37991;49.662;10.060;2022-08-30T05:14:07;4.75;;;2.92;;
51971;SDS011;37991;49.662;10.060;2022-08-30T05:16:33;6.57;;;3.15;;
51971;SDS011;37991;49.662;10.060;2022-08-30T05:18:58;5.40;;;2.55;;
51971;SDS011;37991;49.662;10.060;2022-08-30T05:21:24;7.07;;;2.60;;
51971;SDS011;37991;49.662;10.060;2022-08-30T05:23:51;4.22;;;2.30;;
51971;SDS011;37991;49.662;10.060;2022-08-30T05:26:22;4.15;;;2.60;;
51971;SDS011;37991;49.662;10.060;2022-08-30T05:28:49;7.78;;;2.78;;
51971;SDS011;37991;49.662;10.060;2022-08-30T05:31:19;4.75;;;2.75;;
51971;SDS011;37991;49.662;10.060;2022-08-30T05:33:44;6.18;;;2.92;;
51971;SDS011;37991;49.662;10.060;2022-08-30T05:36:11;3.92;;;2.70;;
51971;SDS011;37991;49.662;10.060;2022-08-30T05:38:38;6.75;;;2.92;;
51971;SDS011;37991;49.662;10.060;2022-08-30T05:41:04;6.00;;;2.70;;
51971;SDS011;37991;49.662;10.060;2022-08-30T05:43:30;7.35;;;3.00;;
51971;SDS011;37991;49.662;10.060;2022-08-30T05:46:02;6.75;;;2.90;;
51971;SDS011;37991;49.662;10.060;2022-08-30T05:48:30;6.53;;;2.95;;
51971;SDS011;37991;49.662;10.060;2022-08-30T05:51:01;7.45;;;2.88;;
51971;SDS011;37991;49.662;10.060;2022-08-30T05:53:31;5.53;;;3.20;;
51971;SDS011;37991;49.662;10.060;2022-08-30T05:55:57;5.13;;;2.72;;
51971;SDS011;37991;49.662;10.060;2022-08-30T05:58:24;5.78;;;2.88;;
51971;SDS011;37991;49.662;10.060;2022-08-30T06:00:49;6.78;;;3.05;;
51971;SDS011;37991;49.662;10.060;2022-08-30T06:03:15;5.53;;;2.83;;
51971;SDS011;37991;49.662;10.060;2022-08-30T06:05:40;5.38;;;3.15;;
51971;SDS011;37991;49.662;10.060;2022-08-30T06:08:05;5.00;;;2.90;;
51971;SDS011;37991;49.662;10.060;2022-08-30T06:10:31;6.10;;;3.25;;
51971;SDS011;37991;49.662;10.060;2022-08-30T06:12:56;5.85;;;3.03;;
51971;SDS011;37991;49.662;10.060;2022-08-30T06:15:21;7.35;;;3.63;;
51971;SDS011;37991;49.662;10.060;2022-08-30T06:17:47;6.30;;;2.97;;
51971;SDS011;37991;49.662;10.060;2022-08-30T06:20:12;10.02;;;3.30;;
51971;SDS011;37991;49.662;10.060;2022-08-30T06:22:38;6.57;;;3.25;;
51971;SDS011;37991;49.662;10.060;2022-08-30T06:25:04;7.68;;;3.65;;
51971;SDS011;37991;49.662;10.060;2022-08-30T06:27:30;8.77;;;3.78;;
51971;SDS011;37991;49.662;10.060;2022-08-30T06:29:55;7.25;;;3.50;;
51971;SDS011;37991;49.662;10.060;2022-08-30T06:32:21;9.13;;;3.05;;
51971;SDS011;37991;49.662;10.060;2022-08-30T06:34:46;9.90;;;3.35;;
51971;SDS011;37991;49.662;10.060;2022-08-30T06:37:12;9.68;;;3.55;;
51971;SDS011;37991;49.662;10.060;2022-08-30T06:39:38;10.20;;;3.67;;
51971;SDS011;37991;49.662;10.060;2022-08-30T06:42:03;7.63;;;3.10;;
51971;SDS011;37991;49.662;10.060;2022-08-30T06:44:31;10.45;;;3.30;;
51971;SDS011;37991;49.662;10.060;2022-08-30T06:46:56;5.93;;;2.97;;
51971;SDS011;37991;49.662;10.060;2022-08-30T06:49:22;11.60;;;3.22;;
51971;SDS011;37991;49.662;10.060;2022-08-30T06:51:47;12.00;;;3.05;;
51971;SDS011;37991;49.662;10.060;2022-08-30T06:54:13;9.45;;;3.30;;
51971;SDS011;37991;49.662;10.060;2022-08-30T06:56:39;8.05;;;2.92;;
51971;SDS011;37991;49.662;10.060;2022-08-30T06:59:05;6.93;;;3.00;;
51971;SDS011;37991;49.662;10.060;2022-08-30T07:01:30;8.43;;;3.22;;
51971;SDS011;37991;49.662;10.060;2022-08-30T07:03:56;6.88;;;3.00;;
51971;SDS011;37991;49.662;10.060;2022-08-30T07:06:23;6.30;;;2.75;;
51971;SDS011;37991;49.662;10.060;2022-08-30T07:08:51;6.18;;;2.90;;
51971;SDS011;37991;49.662;10.060;2022-08-30T07:11:27;8.10;;;3.05;;
51971;SDS011;37991;49.662;10.060;2022-08-30T07:14:00;14.88;;;3.58;;
51971;SDS011;37991;49.662;10.060;2022-08-30T07:16:26;6.47;;;3.10;;
51971;SDS011;37991;49.662;10.060;2022-08-30T07:18:52;6.47;;;3.30;;
51971;SDS011;37991;49.662;10.060;2022-08-30T07:21:25;6.20;;;2.47;;
51971;SDS011;37991;49.662;10.060;2022-08-30T07:23:57;6.35;;;2.90;;
51971;SDS011;37991;49.662;10.060;2022-08-30T07:26:35;9.23;;;2.70;;
51971;SDS011;37991;49.662;10.060;2022-08-30T07:29:02;5.22;;;2.80;;
51971;SDS011;37991;49.662;10.060;2022-08-30T07:31:29;6.45;;;3.03;;
51971;SDS011;37991;49.662;10.060;2022-08-30T07:33:55;5.20;;;2.83;;
51971;SDS011;37991;49.662;10.060;2022-08-30T07:36:21;7.80;;;3.05;;
51971;SDS011;37991;49.662;10.060;2022-08-30T07:38:47;8.95;;;3.30;;
51971;SDS011;37991;49.662;10.060;2022-08-30T07:41:15;5.45;;;2.55;;
51971;SDS011;37991;49.662;10.060;2022-08-30T07:43:43;7.35;;;3.13;;
51971;SDS011;37991;49.662;10.060;2022-08-30T07:46:09;6.07;;;3.30;;
51971;SDS011;37991;49.662;10.060;2022-08-30T07:48:34;6.63;;;3.10;;
51971;SDS011;37991;49.662;10.060;2022-08-30T07:51:00;8.10;;;3.67;;
51971;SDS011;37991;49.662;10.060;2022-08-30T07:53:26;6.95;;;3.00;;
51971;SDS011;37991;49.662;10.060;2022-08-30T07:55:52;8.52;;;2.95;;
51971;SDS011;37991;49.662;10.060;2022-08-30T07:58:17;5.93;;;3.20;;
51971;SDS011;37991;49.662;10.060;2022-08-30T08:00:43;4.80;;;2.70;;
51971;SDS011;37991;49.662;10.060;2022-08-30T08:03:08;6.72;;;3.05;;
51971;SDS011;37991;49.662;10.060;2022-08-30T08:05:38;7.07;;;2.65;;
51971;SDS011;37991;49.662;10.060;2022-08-30T08:08:06;6.00;;;2.88;;
51971;SDS011;37991;49.662;10.060;2022-08-30T08:10:32;6.20;;;2.83;;
51971;SDS011;37991;49.662;10.060;2022-08-30T08:12:59;6.70;;;2.85;;
51971;SDS011;37991;49.662;10.060;2022-08-30T08:15:25;5.93;;;2.67;;
51971;SDS011;37991;49.662;10.060;2022-08-30T08:17:51;4.72;;;2.78;;
51971;SDS011;37991;49.662;10.060;2022-08-30T08:20:16;5.35;;;2.92;;
51971;SDS011;37991;49.662;10.060;2022-08-30T08:22:42;6.50;;;3.03;;
51971;SDS011;37991;49.662;10.060;2022-08-30T08:25:07;12.93;;;3.03;;
51971;SDS011;37991;49.662;10.060;2022-08-30T08:27:32;4.60;;;2.88;;
51971;SDS011;37991;49.662;10.060;2022-08-30T08:29:58;5.60;;;3.20;;
51971;SDS011;37991;49.662;10.060;2022-08-30T08:32:23;5.32;;;2.92;;
51971;SDS011;37991;49.662;10.060;2022-08-30T08:34:48;5.28;;;2.60;;
51971;SDS011;37991;49.662;10.060;2022-08-30T08:37:14;6.38;;;2.78;;
51971;SDS011;37991;49.662;10.060;2022-08-30T08:39:39;5.35;;;2.75;;
51971;SDS011;37991;49.662;10.060;2022-08-30T08:44:47;5.72;;;2.50;;
51971;SDS011;37991;49.662;10.060;2022-08-30T08:47:53;7.15;;;2.70;;
51971;SDS011;37991;49.662;10.060;2022-08-30T08:50:22;3.63;;;2.45;;
51971;SDS011;37991;49.662;10.060;2022-08-30T08:52:49;5.13;;;2.92;;
51971;SDS011;37991;49.662;10.060;2022-08-30T08:55:39;7.72;;;2.90;;
51971;SDS011;37991;49.662;10.060;2022-08-30T08:58:18;5.82;;;2.72;;
51971;SDS011;37991;49.662;10.060;2022-08-30T09:00:47;8.88;;;3.05;;
51971;SDS011;37991;49.662;10.060;2022-08-30T09:03:12;5.45;;;2.60;;
51971;SDS011;37991;49.662;10.060;2022-08-30T09:05:41;5.32;;;2.63;;
51971;SDS011;37991;49.662;10.060;2022-08-30T09:08:09;5.93;;;2.47;;
51971;SDS011;37991;49.662;10.060;2022-08-30T09:10:42;11.88;;;2.88;;
51971;SDS011;37991;49.662;10.060;2022-08-30T09:13:14;5.40;;;2.80;;
51971;SDS011;37991;49.662;10.060;2022-08-30T09:15:40;6.53;;;2.33;;
51971;SDS011;37991;49.662;10.060;2022-08-30T09:18:06;4.88;;;2.63;;
51971;SDS011;37991;49.662;10.060;2022-08-30T09:23:17;6.82;;;2.92;;
51971;SDS011;37991;49.662;10.060;2022-08-30T09:25:55;8.82;;;2.78;;
51971;SDS011;37991;49.662;10.060;2022-08-30T09:28:25;5.28;;;2.80;;
51971;SDS011;37991;49.662;10.060;2022-08-30T09:30:57;7.22;;;2.40;;
51971;SDS011;37991;49.662;10.060;2022-08-30T09:33:25;7.18;;;2.40;;
51971;SDS011;37991;49.662;10.060;2022-08-30T09:35:50;4.85;;;2.40;;
51971;SDS011;37991;49.662;10.060;2022-08-30T09:41:00;4.82;;;2.65;;
51971;SDS011;37991;49.662;10.060;2022-08-30T09:43:46;6.75;;;2.60;;
51971;SDS011;37991;49.662;10.060;2022-08-30T09:46:42;5.15;;;2.47;;
51971;SDS011;37991;49.662;10.060;2022-08-30T10:00:21;5.45;;;2.72;;
51971;SDS011;37991;49.662;10.060;2022-08-30T10:03:00;6.38;;;2.97;;
51971;SDS011;37991;49.662;10.060;2022-08-30T10:05:50;6.95;;;2.40;;
51971;SDS011;37991;49.662;10.060;2022-08-30T10:14:22;6.53;;;2.78;;
51971;SDS011;37991;49.662;10.060;2022-08-30T10:25:32;5.47;;;2.72;;
51971;SDS011;37991;49.662;10.060;2022-08-30T10:28:22;4.15;;;2.40;;
51971;SDS011;37991;49.662;10.060;2022-08-30T10:30:55;7.85;;;2.92;;
51971;SDS011;37991;49.662;10.060;2022-08-30T10:33:27;6.90;;;2.55;;
51971;SDS011;37991;49.662;10.060;2022-08-30T10:35:59;5.90;;;2.40;;
51971;SDS011;37991;49.662;10.060;2022-08-30T10:38:29;6.63;;;2.50;;
51971;SDS011;37991;49.662;10.060;2022-08-30T10:41:00;5.82;;;2.72;;
51971;SDS011;37991;49.662;10.060;2022-08-30T10:49:16;5.35;;;2.53;;
51971;SDS011;37991;49.662;10.060;2022-08-30T10:51:59;5.05;;;2.40;;
51971;SDS011;37991;49.662;10.060;2022-08-30T10:54:52;4.38;;;2.45;;
51971;SDS011;37991;49.662;10.060;2022-08-30T10:57:25;4.70;;;2.50;;
51971;SDS011;37991;49.662;10.060;2022-08-30T10:59:52;6.25;;;2.60;;
51971;SDS011;37991;49.662;10.060;2022-08-30T11:07:34;4.60;;;2.65;;
51971;SDS011;37991;49.662;10.060;2022-08-30T11:12:56;4.65;;;2.60;;
51971;SDS011;37991;49.662;10.060;2022-08-30T11:15:27;3.53;;;2.50;;
51971;SDS011;37991;49.662;10.060;2022-08-30T11:20:42;4.88;;;2.67;;
51971;SDS011;37991;49.662;10.060;2022-08-30T11:25:47;4.25;;;2.50;;
51971;SDS011;37991;49.662;10.060;2022-08-30T11:31:05;2.92;;;2.13;;
51971;SDS011;37991;49.662;10.060;2022-08-30T11:33:50;3.60;;;2.20;;
51971;SDS011;37991;49.662;10.060;2022-08-30T11:37:04;3.22;;;2.35;;
51971;SDS011;37991;49.662;10.060;2022-08-30T11:39:10;3.25;;;2.17;;
51971;SDS011;37991;49.662;10.060;2022-08-30T11:41:44;10.85;;;2.20;;
51971;SDS011;37991;49.662;10.060;2022-08-30T11:46:46;3.13;;;2.00;;
51971;SDS011;37991;49.662;10.060;2022-08-30T11:49:33;3.28;;;2.38;;
51971;SDS011;37991;49.662;10.060;2022-08-30T11:52:23;3.45;;;2.47;;
51971;SDS011;37991;49.662;10.060;2022-08-30T11:55:20;4.72;;;2.13;;
51971;SDS011;37991;49.662;10.060;2022-08-30T12:01:14;2.92;;;2.10;;
51971;SDS011;37991;49.662;10.060;2022-08-30T12:03:42;3.65;;;2.03;;
51971;SDS011;37991;49.662;10.060;2022-08-30T12:06:09;4.25;;;2.13;;
51971;SDS011;37991;49.662;10.060;2022-08-30T12:08:55;2.72;;;2.10;;
51971;SDS011;37991;49.662;10.060;2022-08-30T12:16:13;4.37;;;2.40;;
51971;SDS011;37991;49.662;10.060;2022-08-30T12:23:53;4.95;;;2.15;;
51971;SDS011;37991;49.662;10.060;2022-08-30T12:31:48;5.40;;;2.20;;
51971;SDS011;37991;49.662;10.060;2022-08-30T12:37:00;2.95;;;2.17;;
51971;SDS011;37991;49.662;10.060;2022-08-30T12:39:36;3.35;;;2.08;;
51971;SDS011;37991;49.662;10.060;2022-08-30T12:44:38;10.23;;;2.67;;
51971;SDS011;37991;49.662;10.060;2022-08-30T12:47:05;5.15;;;2.47;;
51971;SDS011;37991;49.662;10.060;2022-08-30T12:49:34;5.22;;;2.22;;
51971;SDS011;37991;49.662;10.060;2022-08-30T12:52:32;4.00;;;2.22;;
51971;SDS011;37991;49.662;10.060;2022-08-30T12:55:13;2.72;;;2.00;;
51971;SDS011;37991;49.662;10.060;2022-08-30T13:00:22;2.85;;;2.08;;
51971;SDS011;37991;49.662;10.060;2022-08-30T13:02:53;5.53;;;2.33;;
51971;SDS011;37991;49.662;10.060;2022-08-30T13:11:02;6.07;;;2.43;;
51971;SDS011;37991;49.662;10.060;2022-08-30T13:13:44;3.30;;;2.17;;
51971;SDS011;37991;49.662;10.060;2022-08-30T13:18:42;5.00;;;2.45;;
51971;SDS011;37991;49.662;10.060;2022-08-30T13:23:42;4.18;;;2.25;;
51971;SDS011;37991;49.662;10.060;2022-08-30T13:26:08;5.50;;;2.13;;
51971;SDS011;37991;49.662;10.060;2022-08-30T13:28:43;5.25;;;2.22;;
51971;SDS011;37991;49.662;10.060;2022-08-30T13:31:10;2.83;;;2.08;;
51971;SDS011;37991;49.662;10.060;2022-08-30T13:33:35;3.95;;;1.98;;
51971;SDS011;37991;49.662;10.060;2022-08-30T13:36:01;3.92;;;1.90;;
51971;SDS011;37991;49.662;10.060;2022-08-30T13:38:26;3.92;;;2.25;;
51971;SDS011;37991;49.662;10.060;2022-08-30T13:40:52;5.15;;;2.42;;
51971;SDS011;37991;49.662;10.060;2022-08-30T13:43:17;3.50;;;2.40;;
51971;SDS011;37991;49.662;10.060;2022-08-30T13:45:42;4.20;;;2.28;;
51971;SDS011;37991;49.662;10.060;2022-08-30T13:48:08;4.63;;;2.38;;
51971;SDS011;37991;49.662;10.060;2022-08-30T13:50:35;4.43;;;2.20;;
51971;SDS011;37991;49.662;10.060;2022-08-30T13:53:00;6.00;;;2.30;;
51971;SDS011;37991;49.662;10.060;2022-08-30T13:55:26;3.08;;;2.10;;
51971;SDS011;37991;49.662;10.060;2022-08-30T13:57:52;3.17;;;2.10;;
51971;SDS011;37991;49.662;10.060;2022-08-30T14:00:18;3.13;;;1.88;;
51971;SDS011;37991;49.662;10.060;2022-08-30T14:02:46;4.65;;;2.00;;
51971;SDS011;37991;49.662;10.060;2022-08-30T14:05:12;4.85;;;2.45;;
51971;SDS011;37991;49.662;10.060;2022-08-30T14:07:38;4.18;;;2.20;;
51971;SDS011;37991;49.662;10.060;2022-08-30T14:10:04;2.95;;;1.95;;
51971;SDS011;37991;49.662;10.060;2022-08-30T14:12:30;4.13;;;2.20;;
51971;SDS011;37991;49.662;10.060;2022-08-30T14:14:56;2.83;;;2.13;;
51971;SDS011;37991;49.662;10.060;2022-08-30T14:17:21;2.95;;;2.15;;
51971;SDS011;37991;49.662;10.060;2022-08-30T14:19:49;2.67;;;1.80;;
51971;SDS011;37991;49.662;10.060;2022-08-30T14:22:14;5.55;;;2.45;;
51971;SDS011;37991;49.662;10.060;2022-08-30T14:24:43;6.28;;;2.30;;
51971;SDS011;37991;49.662;10.060;2022-08-30T14:27:09;4.53;;;2.10;;
51971;SDS011;37991;49.662;10.060;2022-08-30T14:29:34;3.78;;;2.05;;
51971;SDS011;37991;49.662;10.060;2022-08-30T14:32:00;3.08;;;1.90;;
51971;SDS011;37991;49.662;10.060;2022-08-30T14:34:25;4.10;;;2.65;;
51971;SDS011;37991;49.662;10.060;2022-08-30T14:36:51;2.50;;;2.00;;
51971;SDS011;37991;49.662;10.060;2022-08-30T14:39:17;2.17;;;1.92;;
51971;SDS011;37991;49.662;10.060;2022-08-30T14:41:45;3.72;;;1.80;;
51971;SDS011;37991;49.662;10.060;2022-08-30T14:44:13;2.72;;;2.00;;
51971;SDS011;37991;49.662;10.060;2022-08-30T14:46:41;4.10;;;2.50;;
51971;SDS011;37991;49.662;10.060;2022-08-30T14:49:07;2.97;;;2.05;;
51971;SDS011;37991;49.662;10.060;2022-08-30T14:51:32;2.40;;;2.10;;
51971;SDS011;37991;49.662;10.060;2022-08-30T14:53:57;4.55;;;1.98;;
51971;SDS011;37991;49.662;10.060;2022-08-30T14:56:23;3.70;;;2.03;;
51971;SDS011;37991;49.662;10.060;2022-08-30T14:58:49;3.63;;;2.20;;
51971;SDS011;37991;49.662;10.060;2022-08-30T15:01:15;7.07;;;2.00;;
51971;SDS011;37991;49.662;10.060;2022-08-30T15:03:42;4.28;;;2.45;;
51971;SDS011;37991;49.662;10.060;2022-08-30T15:06:07;2.95;;;2.13;;
51971;SDS011;37991;49.662;10.060;2022-08-30T15:08:33;7.10;;;2.47;;
51971;SDS011;37991;49.662;10.060;2022-08-30T15:11:04;9.93;;;2.42;;
51971;SDS011;37991;49.662;10.060;2022-08-30T15:13:42;5.38;;;2.28;;
51971;SDS011;37991;49.662;10.060;2022-08-30T15:16:12;4.80;;;2.30;;
51971;SDS011;37991;49.662;10.060;2022-08-30T15:18:42;4.43;;;2.25;;
51971;SDS011;37991;49.662;10.060;2022-08-30T15:21:08;2.90;;;2.15;;
51971;SDS011;37991;49.662;10.060;2022-08-30T15:23:34;3.97;;;2.10;;
51971;SDS011;37991;49.662;10.060;2022-08-30T15:25:59;6.28;;;2.40;;
51971;SDS011;37991;49.662;10.060;2022-08-30T15:28:25;4.85;;;2.38;;
51971;SDS011;37991;49.662;10.060;2022-08-30T15:30:51;3.85;;;2.00;;
51971;SDS011;37991;49.662;10.060;2022-08-30T15:33:16;4.35;;;2.30;;
51971;SDS011;37991;49.662;10.060;2022-08-30T15:35:41;5.05;;;2.35;;
51971;SDS011;37991;49.662;10.060;2022-08-30T15:38:07;4.57;;;2.40;;
51971;SDS011;37991;49.662;10.060;2022-08-30T15:40:32;3.40;;;2.10;;
51971;SDS011;37991;49.662;10.060;2022-08-30T15:43:00;5.47;;;2.60;;
51971;SDS011;37991;49.662;10.060;2022-08-30T15:45:26;3.03;;;2.05;;
51971;SDS011;37991;49.662;10.060;2022-08-30T15:47:52;4.32;;;2.35;;
51971;SDS011;37991;49.662;10.060;2022-08-30T15:50:18;2.03;;;1.80;;
51971;SDS011;37991;49.662;10.060;2022-08-30T15:52:43;3.28;;;2.00;;
51971;SDS011;37991;49.662;10.060;2022-08-30T15:55:08;4.53;;;2.22;;
51971;SDS011;37991;49.662;10.060;2022-08-30T15:57:34;4.15;;;2.20;;
51971;SDS011;37991;49.662;10.060;2022-08-30T15:59:59;4.18;;;1.98;;
51971;SDS011;37991;49.662;10.060;2022-08-30T16:02:24;3.35;;;2.03;;
51971;SDS011;37991;49.662;10.060;2022-08-30T16:04:50;2.67;;;1.73;;
51971;SDS011;37991;49.662;10.060;2022-08-30T16:07:15;2.35;;;2.05;;
51971;SDS011;37991;49.662;10.060;2022-08-30T16:09:41;2.30;;;2.08;;
51971;SDS011;37991;49.662;10.060;2022-08-30T16:12:06;3.22;;;1.92;;
51971;SDS011;37991;49.662;10.060;2022-08-30T16:14:32;4.95;;;2.30;;
51971;SDS011;37991;49.662;10.060;2022-08-30T16:16:58;5.30;;;1.92;;